createdAt,value
2019-03-11T00:00:39.943Z,23.93
2019-03-11T00:01:44.639Z,19.53
2019-03-11T00:02:48.309Z,22.83
2019-03-11T00:03:51.942Z,19.43
2019-03-11T00:04:55.582Z,17.13
2019-03-11T00:05:59.217Z,18.70
2019-03-11T00:07:02.859Z,17.23
2019-03-11T00:08:06.537Z,20.40
2019-03-11T00:09:10.180Z,18.67
2019-03-11T00:10:13.817Z,20.07
2019-03-11T00:11:17.465Z,20.37
2019-03-11T00:12:21.097Z,18.80
2019-03-11T00:13:24.962Z,20.63
2019-03-11T00:14:28.601Z,19.60
2019-03-11T00:15:32.242Z,18.50
2019-03-11T00:16:35.889Z,22.73
2019-03-11T00:17:39.526Z,22.67
2019-03-11T00:18:43.278Z,20.97
2019-03-11T00:19:46.915Z,20.73
2019-03-11T00:20:50.545Z,20.07
2019-03-11T00:21:54.177Z,21.43
2019-03-11T00:22:57.886Z,20.77
2019-03-11T00:24:01.577Z,20.57
2019-03-11T00:25:06.033Z,27.03
2019-03-11T00:26:09.674Z,20.23
2019-03-11T00:27:13.308Z,17.87
2019-03-11T00:28:17.293Z,22.03
2019-03-11T00:29:20.987Z,19.87
2019-03-11T00:30:24.625Z,23.60
2019-03-11T00:31:28.270Z,15.83
2019-03-11T00:32:31.906Z,21.30
2019-03-11T00:33:35.615Z,13.93
2019-03-11T00:34:39.214Z,15.17
2019-03-11T00:35:42.859Z,13.67
2019-03-11T00:36:46.831Z,13.47
2019-03-11T00:37:50.506Z,17.30
2019-03-11T00:38:54.140Z,16.37
2019-03-11T00:39:57.785Z,13.27
2019-03-11T00:41:01.332Z,13.23
2019-03-11T00:42:04.986Z,14.47
2019-03-11T00:43:08.617Z,16.20
2019-03-11T00:44:12.258Z,15.40
2019-03-11T00:45:16.403Z,12.73
2019-03-11T00:46:20.038Z,13.67
2019-03-11T00:47:23.749Z,15.53
2019-03-11T00:48:27.374Z,15.43
2019-03-11T00:49:31.008Z,13.10
2019-03-11T00:50:34.681Z,15.97
2019-03-11T00:51:38.242Z,12.13
2019-03-11T00:52:42.027Z,14.27
2019-03-11T00:53:45.825Z,11.03
2019-03-11T00:54:49.855Z,13.10
2019-03-11T00:55:53.515Z,16.87
2019-03-11T00:56:57.134Z,13.47
2019-03-11T00:58:00.767Z,17.63
2019-03-11T00:59:04.399Z,17.03
2019-03-11T01:00:25.399Z,13.93
2019-03-11T01:01:29.065Z,14.47
2019-03-11T01:02:32.620Z,15.07
2019-03-11T01:03:36.255Z,12.87
2019-03-11T01:04:39.817Z,19.00
2019-03-11T01:05:43.448Z,14.07
2019-03-11T01:06:47.103Z,14.30
2019-03-11T01:07:50.728Z,16.90
2019-03-11T01:08:54.369Z,16.13
2019-03-11T01:09:57.996Z,15.67
2019-03-11T01:11:01.637Z,16.97
2019-03-11T01:12:05.291Z,19.07
2019-03-11T01:13:08.915Z,19.23
2019-03-11T01:14:12.545Z,15.37
2019-03-11T01:15:16.177Z,12.53
2019-03-11T01:16:19.803Z,16.73
2019-03-11T01:17:23.463Z,16.17
2019-03-11T01:18:27.087Z,17.93
2019-03-11T01:19:30.712Z,12.97
2019-03-11T01:20:34.342Z,14.97
2019-03-11T01:21:37.970Z,19.07
2019-03-11T01:22:41.613Z,19.60
2019-03-11T01:23:45.273Z,14.63
2019-03-11T01:24:48.884Z,16.37
2019-03-11T01:25:52.621Z,16.90
2019-03-11T01:26:56.261Z,18.20
2019-03-11T01:27:59.903Z,11.77
2019-03-11T01:29:03.537Z,10.50
2019-03-11T01:30:10.266Z,13.97
2019-03-11T01:31:13.831Z,16.47
2019-03-11T01:32:17.460Z,10.30
2019-03-11T01:33:21.135Z,10.83
2019-03-11T01:34:24.690Z,11.97
2019-03-11T01:35:28.310Z,12.10
2019-03-11T01:36:31.939Z,11.17
2019-03-11T01:37:35.489Z,9.40
2019-03-11T01:38:39.137Z,10.13
2019-03-11T01:39:42.756Z,9.80
2019-03-11T01:40:46.386Z,9.67
2019-03-11T01:41:50.026Z,12.33
2019-03-11T01:42:53.657Z,10.03
2019-03-11T01:43:57.323Z,10.37
2019-03-11T01:45:00.953Z,13.83
2019-03-11T01:46:04.586Z,12.43
2019-03-11T01:47:08.146Z,13.13
2019-03-11T01:48:11.775Z,13.23
2019-03-11T01:49:15.446Z,14.50
2019-03-11T01:50:19.079Z,17.70
2019-03-11T01:51:22.716Z,19.43
2019-03-11T01:52:26.345Z,19.30
2019-03-11T01:53:29.975Z,13.80
2019-03-11T01:54:33.562Z,17.27
2019-03-11T01:55:37.192Z,18.47
2019-03-11T01:56:40.826Z,17.47
2019-03-11T01:57:44.455Z,18.00
2019-03-11T01:58:48.089Z,22.47
2019-03-11T01:59:52.022Z,19.47
2019-03-11T02:00:55.828Z,22.97
2019-03-11T02:01:59.469Z,19.23
2019-03-11T02:03:03.105Z,19.73
2019-03-11T02:04:06.889Z,21.17
2019-03-11T02:05:11.184Z,19.40
2019-03-11T02:06:14.816Z,26.57
2019-03-11T02:07:18.462Z,29.67
2019-03-11T02:08:22.100Z,24.93
2019-03-11T02:09:25.664Z,31.07
2019-03-11T02:10:29.340Z,30.47
2019-03-11T02:11:32.975Z,25.57
2019-03-11T02:12:36.708Z,24.70
2019-03-11T02:13:40.345Z,25.43
2019-03-11T02:14:43.976Z,21.53
2019-03-11T02:15:47.640Z,32.37
2019-03-11T02:16:51.277Z,28.03
2019-03-11T02:17:54.921Z,26.67
2019-03-11T02:18:58.561Z,28.67
2019-03-11T02:20:02.187Z,27.43
2019-03-11T02:21:05.860Z,28.03
2019-03-11T02:22:09.491Z,30.50
2019-03-11T02:23:13.133Z,33.97
2019-03-11T02:24:16.693Z,25.97
2019-03-11T02:25:20.328Z,35.77
2019-03-11T02:26:24.040Z,30.83
2019-03-11T02:27:27.634Z,37.80
2019-03-11T02:28:31.258Z,31.03
2019-03-11T02:29:34.886Z,28.93
2019-03-11T02:30:38.541Z,36.70
2019-03-11T02:31:42.194Z,28.40
2019-03-11T02:32:45.937Z,32.33
2019-03-11T02:33:49.573Z,35.23
2019-03-11T02:34:53.202Z,37.33
2019-03-11T02:35:56.907Z,32.50
2019-03-11T02:37:00.631Z,30.70
2019-03-11T02:38:04.275Z,33.60
2019-03-11T02:39:08.080Z,31.37
2019-03-11T02:40:14.430Z,31.77
2019-03-11T02:41:18.166Z,29.23
2019-03-11T02:42:21.840Z,33.87
2019-03-11T02:43:25.467Z,31.70
2019-03-11T02:44:29.143Z,27.70
2019-03-11T02:45:32.764Z,32.73
2019-03-11T02:46:36.401Z,26.10
2019-03-11T02:47:40.001Z,23.50
2019-03-11T02:48:43.558Z,24.40
2019-03-11T02:49:47.191Z,24.57
2019-03-11T02:50:50.838Z,21.80
2019-03-11T02:51:54.814Z,19.57
2019-03-11T02:52:58.399Z,21.30
2019-03-11T02:54:02.031Z,16.87
2019-03-11T02:55:06.876Z,15.10
2019-03-11T02:56:10.574Z,16.40
2019-03-11T02:57:14.201Z,18.67
2019-03-11T02:58:17.864Z,19.23
2019-03-11T02:59:21.490Z,17.03
2019-03-11T03:00:25.126Z,18.97
2019-03-11T03:01:36.017Z,23.90
2019-03-11T03:02:47.205Z,24.10
2019-03-11T03:03:52.619Z,31.70
2019-03-11T03:04:57.889Z,27.83
2019-03-11T03:06:03.559Z,28.60
2019-03-11T03:07:07.242Z,26.07
2019-03-11T03:08:10.938Z,23.63
2019-03-11T03:09:15.036Z,28.63
2019-03-11T03:10:18.757Z,25.40
2019-03-11T03:11:22.394Z,25.50
2019-03-11T03:12:26.030Z,26.50
2019-03-11T03:13:29.653Z,30.93
2019-03-11T03:14:33.315Z,28.77
2019-03-11T03:15:36.943Z,25.53
2019-03-11T03:16:40.572Z,25.00
2019-03-11T03:17:44.202Z,25.70
2019-03-11T03:18:47.767Z,26.93
2019-03-11T03:19:51.532Z,28.47
2019-03-11T03:20:55.236Z,27.53
2019-03-11T03:21:58.815Z,33.13
2019-03-11T03:23:02.456Z,28.57
2019-03-11T03:24:06.091Z,26.43
2019-03-11T03:25:11.564Z,31.73
2019-03-11T03:26:15.207Z,28.80
2019-03-11T03:27:18.865Z,28.23
2019-03-11T03:28:22.476Z,26.47
2019-03-11T03:29:26.108Z,31.77
2019-03-11T03:30:29.814Z,29.97
2019-03-11T03:31:33.410Z,29.17
2019-03-11T03:32:37.047Z,31.80
2019-03-11T03:33:41.087Z,31.80
2019-03-11T03:34:44.781Z,23.23
2019-03-11T03:35:49.046Z,26.73
2019-03-11T03:36:52.617Z,21.13
2019-03-11T03:37:56.254Z,28.03
2019-03-11T03:38:59.890Z,24.83
2019-03-11T03:40:04.628Z,19.00
2019-03-11T03:41:08.605Z,20.47
2019-03-11T03:42:13.620Z,20.17
2019-03-11T03:43:17.789Z,16.70
2019-03-11T03:44:21.421Z,24.57
2019-03-11T03:45:27.293Z,15.17
2019-03-11T03:46:30.955Z,16.87
2019-03-11T03:47:34.588Z,15.50
2019-03-11T03:48:38.294Z,16.53
2019-03-11T03:49:41.970Z,18.23
2019-03-11T03:50:46.011Z,23.30
2019-03-11T03:51:49.717Z,17.53
2019-03-11T03:52:53.382Z,20.07
2019-03-11T03:53:57.013Z,17.47
2019-03-11T03:55:00.649Z,22.80
2019-03-11T03:56:04.274Z,20.37
2019-03-11T03:57:07.940Z,26.53
2019-03-11T03:58:11.980Z,25.10
2019-03-11T03:59:15.626Z,20.30
2019-03-11T04:00:19.267Z,19.97
2019-03-11T04:01:22.903Z,23.97
2019-03-11T04:02:26.588Z,20.20
2019-03-11T04:03:30.518Z,22.50
2019-03-11T04:04:34.081Z,24.30
2019-03-11T04:05:37.757Z,21.37
2019-03-11T04:06:41.387Z,21.77
2019-03-11T04:07:45.054Z,21.03
2019-03-11T04:08:48.686Z,25.67
2019-03-11T04:09:52.325Z,26.73
2019-03-11T04:10:55.970Z,24.67
2019-03-11T04:11:59.593Z,21.37
2019-03-11T04:13:03.259Z,23.53
2019-03-11T04:14:07.143Z,28.27
2019-03-11T04:15:11.752Z,24.73
2019-03-11T04:16:15.587Z,25.83
2019-03-11T04:17:19.313Z,21.37
2019-03-11T04:18:23.887Z,21.37
2019-03-11T04:19:29.452Z,21.23
2019-03-11T04:20:32.876Z,22.77
2019-03-11T04:21:36.514Z,19.20
2019-03-11T04:22:40.726Z,21.87
2019-03-11T04:23:44.494Z,24.30
2019-03-11T04:24:48.121Z,19.30
2019-03-11T04:25:51.757Z,25.60
2019-03-11T04:26:55.500Z,21.63
2019-03-11T04:27:59.133Z,22.47
2019-03-11T04:29:02.792Z,24.53
2019-03-11T04:30:14.862Z,21.40
2019-03-11T04:31:18.500Z,17.77
2019-03-11T04:32:22.144Z,37.07
2019-03-11T04:33:25.765Z,24.10
2019-03-11T04:34:29.845Z,23.67
2019-03-11T04:35:33.476Z,20.00
2019-03-11T04:36:37.198Z,22.20
2019-03-11T04:37:40.822Z,24.53
2019-03-11T04:38:44.401Z,19.50
2019-03-11T04:39:48.062Z,19.57
2019-03-11T04:40:51.734Z,28.53
2019-03-11T04:41:55.361Z,23.40
2019-03-11T04:42:58.999Z,22.00
2019-03-11T04:44:02.639Z,21.20
2019-03-11T04:45:09.206Z,18.53
2019-03-11T04:46:12.843Z,17.07
2019-03-11T04:47:16.475Z,24.77
2019-03-11T04:48:20.110Z,20.17
2019-03-11T04:49:23.750Z,22.27
2019-03-11T04:50:27.445Z,26.73
2019-03-11T04:51:30.973Z,22.53
2019-03-11T04:52:35.022Z,21.17
2019-03-11T04:53:39.645Z,21.70
2019-03-11T04:54:43.282Z,25.90
2019-03-11T04:55:46.953Z,24.23
2019-03-11T04:56:50.591Z,28.03
2019-03-11T04:57:55.143Z,27.33
2019-03-11T04:59:09.836Z,26.03
2019-03-11T05:00:16.207Z,24.70
2019-03-11T05:01:20.266Z,28.17
2019-03-11T05:02:23.893Z,37.77
2019-03-11T05:03:27.519Z,32.10
2019-03-11T05:04:31.154Z,38.30
2019-03-11T05:05:34.787Z,30.80
2019-03-11T05:06:38.465Z,35.33
2019-03-11T05:07:42.097Z,33.43
2019-03-11T05:08:45.731Z,37.70
2019-03-11T05:09:49.371Z,35.03
2019-03-11T05:10:53.012Z,36.10
2019-03-11T05:11:56.684Z,38.53
2019-03-11T05:13:00.315Z,43.10
2019-03-11T05:14:03.954Z,38.20
2019-03-11T05:15:12.032Z,35.37
2019-03-11T05:16:15.660Z,39.33
2019-03-11T05:17:19.326Z,44.13
2019-03-11T05:18:22.961Z,39.80
2019-03-11T05:19:26.604Z,33.17
2019-03-11T05:20:30.219Z,40.87
2019-03-11T05:21:33.782Z,46.80
2019-03-11T05:22:37.459Z,38.73
2019-03-11T05:23:41.172Z,38.23
2019-03-11T05:24:44.927Z,53.73
2019-03-11T05:25:48.552Z,40.60
2019-03-11T05:26:52.583Z,39.37
2019-03-11T05:27:56.366Z,32.03
2019-03-11T05:28:59.929Z,43.27
2019-03-11T05:30:05.246Z,37.27
2019-03-11T05:31:08.975Z,41.10
2019-03-11T05:32:12.531Z,47.90
2019-03-11T05:33:18.379Z,39.87
2019-03-11T05:34:22.010Z,38.73
2019-03-11T05:35:25.573Z,47.20
2019-03-11T05:36:29.268Z,40.17
2019-03-11T05:37:32.912Z,43.60
2019-03-11T05:38:36.506Z,41.40
2019-03-11T05:39:40.141Z,41.20
2019-03-11T05:40:43.783Z,37.83
2019-03-11T05:41:47.773Z,40.80
2019-03-11T05:42:54.131Z,36.17
2019-03-11T05:43:57.798Z,34.83
2019-03-11T05:45:01.431Z,39.30
2019-03-11T05:46:05.069Z,35.77
2019-03-11T05:47:08.769Z,37.17
2019-03-11T05:48:12.433Z,37.07
2019-03-11T05:49:16.027Z,43.33
2019-03-11T05:50:19.969Z,47.23
2019-03-11T05:51:31.385Z,49.13
2019-03-11T05:52:29.374Z,69.07
2019-03-11T05:53:33.079Z,99.90
2019-03-11T05:54:36.991Z,60.57
2019-03-11T05:55:40.784Z,43.77
2019-03-11T05:56:44.415Z,35.70
2019-03-11T05:57:48.050Z,39.63
2019-03-11T05:58:51.756Z,35.33
2019-03-11T05:59:55.463Z,36.33
2019-03-11T06:00:59.104Z,29.47
2019-03-11T06:02:02.743Z,28.43
2019-03-11T06:03:09.172Z,24.17
2019-03-11T06:04:12.844Z,24.30
2019-03-11T06:05:16.515Z,30.20
2019-03-11T06:06:20.390Z,32.97
2019-03-11T06:07:24.035Z,31.23
2019-03-11T06:08:28.090Z,22.07
2019-03-11T06:09:31.722Z,23.27
2019-03-11T06:10:35.387Z,27.17
2019-03-11T06:11:41.819Z,26.80
2019-03-11T06:12:45.459Z,29.37
2019-03-11T06:13:49.243Z,34.97
2019-03-11T06:14:52.805Z,35.87
2019-03-11T06:15:56.472Z,37.70
2019-03-11T06:17:00.101Z,42.20
2019-03-11T06:18:03.742Z,32.83
2019-03-11T06:19:07.381Z,35.50
2019-03-11T06:20:30.239Z,40.33
2019-03-11T06:21:35.482Z,41.30
2019-03-11T06:22:39.047Z,41.17
2019-03-11T06:23:44.965Z,38.97
2019-03-11T06:24:48.603Z,38.07
2019-03-11T06:25:52.233Z,41.17
2019-03-11T06:26:55.905Z,37.63
2019-03-11T06:27:59.536Z,37.70
2019-03-11T06:29:03.180Z,32.57
2019-03-11T06:30:09.483Z,37.67
2019-03-11T06:31:13.151Z,41.03
2019-03-11T06:32:16.857Z,33.57
2019-03-11T06:33:20.503Z,34.93
2019-03-11T06:34:24.055Z,47.40
2019-03-11T06:35:27.759Z,41.13
2019-03-11T06:36:31.542Z,37.90
2019-03-11T06:37:35.275Z,32.30
2019-03-11T06:38:38.832Z,36.43
2019-03-11T06:39:42.600Z,36.07
2019-03-11T06:40:46.270Z,45.20
2019-03-11T06:41:49.904Z,40.40
2019-03-11T06:42:53.573Z,37.57
2019-03-11T06:43:57.209Z,40.67
2019-03-11T06:45:00.969Z,36.07
2019-03-11T06:46:05.014Z,35.07
2019-03-11T06:47:08.600Z,36.60
2019-03-11T06:48:12.261Z,35.47
2019-03-11T06:49:15.967Z,39.70
2019-03-11T06:50:19.716Z,30.37
2019-03-11T06:51:23.353Z,32.80
2019-03-11T06:52:26.989Z,26.40
2019-03-11T06:53:30.721Z,28.73
2019-03-11T06:54:34.429Z,33.90
2019-03-11T06:55:38.134Z,25.80
2019-03-11T06:56:41.766Z,32.97
2019-03-11T06:57:45.932Z,32.33
2019-03-11T06:58:49.827Z,25.17
2019-03-11T06:59:53.395Z,29.27
2019-03-11T07:00:57.042Z,29.53
2019-03-11T07:02:00.754Z,23.93
2019-03-11T07:03:04.717Z,30.73
2019-03-11T07:04:08.472Z,22.73
2019-03-11T07:05:20.125Z,32.43
2019-03-11T07:06:17.554Z,24.17
2019-03-11T07:07:21.189Z,30.33
2019-03-11T07:08:24.827Z,23.33
2019-03-11T07:09:31.926Z,23.13
2019-03-11T07:10:35.899Z,21.73
2019-03-11T07:11:39.521Z,24.40
2019-03-11T07:12:43.165Z,21.30
2019-03-11T07:13:46.931Z,26.67
2019-03-11T07:14:50.606Z,20.30
2019-03-11T07:15:54.238Z,24.73
2019-03-11T07:16:57.873Z,22.17
2019-03-11T07:18:01.525Z,20.33
2019-03-11T07:19:05.159Z,20.07
2019-03-11T07:20:17.519Z,23.00
2019-03-11T07:21:21.151Z,15.37
2019-03-11T07:22:24.794Z,19.73
2019-03-11T07:23:28.606Z,16.10
2019-03-11T07:24:32.319Z,21.37
2019-03-11T07:25:35.921Z,22.63
2019-03-11T07:26:39.559Z,27.60
2019-03-11T07:27:43.298Z,25.37
2019-03-11T07:28:47.010Z,26.83
2019-03-11T07:29:50.643Z,29.50
2019-03-11T07:30:54.401Z,22.70
2019-03-11T07:31:57.955Z,27.23
2019-03-11T07:33:01.741Z,30.47
2019-03-11T07:34:05.638Z,27.00
2019-03-11T07:35:13.713Z,26.47
2019-03-11T07:36:17.458Z,26.33
2019-03-11T07:37:24.478Z,29.07
2019-03-11T07:38:28.429Z,25.17
2019-03-11T07:39:32.721Z,24.83
2019-03-11T07:40:38.284Z,26.23
2019-03-11T07:41:42.073Z,21.47
2019-03-11T07:42:45.968Z,23.67
2019-03-11T07:43:49.701Z,32.10
2019-03-11T07:44:53.912Z,21.70
2019-03-11T07:45:57.599Z,19.33
2019-03-11T07:47:01.418Z,18.43
2019-03-11T07:48:05.526Z,19.90
2019-03-11T07:49:12.008Z,22.73
2019-03-11T07:50:17.256Z,18.90
2019-03-11T07:51:21.403Z,18.13
2019-03-11T07:52:26.126Z,14.00
2019-03-11T07:53:30.204Z,12.73
2019-03-11T07:54:35.984Z,17.80
2019-03-11T07:55:39.342Z,20.33
2019-03-11T07:56:46.445Z,18.57
2019-03-11T07:57:50.538Z,15.73
2019-03-11T07:58:57.127Z,19.07
2019-03-11T08:00:00.930Z,19.83
2019-03-11T08:01:04.541Z,12.70
2019-03-11T08:02:08.479Z,19.80
2019-03-11T08:03:14.675Z,17.53
2019-03-11T08:04:18.444Z,17.20
2019-03-11T08:05:22.305Z,20.57
2019-03-11T08:06:26.066Z,17.90
2019-03-11T08:07:29.997Z,16.17
2019-03-11T08:08:33.838Z,12.47
2019-03-11T08:09:38.753Z,17.77
2019-03-11T08:10:43.106Z,20.00
2019-03-11T08:11:47.053Z,23.20
2019-03-11T08:12:51.064Z,21.73
2019-03-11T08:13:55.075Z,21.60
2019-03-11T08:15:00.983Z,25.37
2019-03-11T08:16:04.693Z,17.60
2019-03-11T08:17:08.441Z,17.10
2019-03-11T08:18:12.094Z,20.77
2019-03-11T08:19:15.840Z,17.80
2019-03-11T08:20:22.918Z,16.40
2019-03-11T08:21:26.711Z,20.10
2019-03-11T08:22:30.354Z,12.90
2019-03-11T08:23:35.812Z,14.47
2019-03-11T08:24:40.078Z,20.20
2019-03-11T08:25:43.727Z,15.03
2019-03-11T08:26:47.486Z,16.17
2019-03-11T08:27:51.433Z,15.63
2019-03-11T08:28:55.168Z,15.00
2019-03-11T08:30:00.345Z,15.90
2019-03-11T08:31:04.292Z,12.57
2019-03-11T08:32:08.110Z,10.57
2019-03-11T08:33:13.306Z,8.73
2019-03-11T08:34:17.554Z,10.20
2019-03-11T08:35:22.405Z,14.37
2019-03-11T08:36:26.046Z,15.17
2019-03-11T08:37:32.732Z,10.60
2019-03-11T08:38:36.712Z,10.90
2019-03-11T08:39:40.356Z,10.27
2019-03-11T08:40:46.389Z,19.23
2019-03-11T08:41:50.072Z,9.27
2019-03-11T08:42:53.706Z,12.13
2019-03-11T08:43:57.338Z,12.97
2019-03-11T08:45:00.960Z,8.23
2019-03-11T08:46:04.624Z,11.57
2019-03-11T08:47:08.331Z,12.50
2019-03-11T08:48:11.899Z,14.80
2019-03-11T08:49:15.535Z,10.73
2019-03-11T08:50:19.171Z,11.97
2019-03-11T08:51:24.986Z,8.87
2019-03-11T08:52:28.696Z,10.87
2019-03-11T08:53:32.459Z,8.63
2019-03-11T08:54:36.587Z,7.23
2019-03-11T08:55:40.205Z,11.90
2019-03-11T08:56:44.319Z,9.87
2019-03-11T08:57:47.950Z,10.53
2019-03-11T08:58:51.972Z,9.60
2019-03-11T08:59:55.541Z,8.07
2019-03-11T09:00:59.176Z,9.80
2019-03-11T09:02:02.834Z,8.03
2019-03-11T09:03:06.894Z,9.00
2019-03-11T09:04:10.509Z,5.53
2019-03-11T09:05:14.246Z,7.77
2019-03-11T09:06:17.872Z,9.53
2019-03-11T09:07:21.959Z,9.30
2019-03-11T09:08:25.594Z,8.53
2019-03-11T09:09:31.604Z,10.07
2019-03-11T09:10:34.582Z,7.53
2019-03-11T09:11:38.210Z,9.17
2019-03-11T09:12:41.905Z,6.97
2019-03-11T09:13:45.628Z,16.17
2019-03-11T09:14:49.392Z,10.37
2019-03-11T09:15:53.160Z,8.20
2019-03-11T09:16:56.815Z,11.80
2019-03-11T09:18:00.477Z,8.23
2019-03-11T09:19:04.167Z,7.50
2019-03-11T09:20:10.796Z,7.85
2019-03-11T09:21:14.522Z,9.68
2019-03-11T09:22:18.220Z,7.40
2019-03-11T09:23:21.894Z,5.20
2019-03-11T09:24:25.528Z,6.70
2019-03-11T09:25:29.809Z,8.90
2019-03-11T09:26:33.430Z,4.35
2019-03-11T09:27:36.928Z,5.90
2019-03-11T09:28:40.595Z,6.12
2019-03-11T09:29:44.225Z,6.40
2019-03-11T09:30:47.927Z,7.00
2019-03-11T09:31:51.620Z,4.40
2019-03-11T09:32:55.351Z,5.40
2019-03-11T09:33:59.006Z,5.78
2019-03-11T09:35:02.648Z,5.50
2019-03-11T09:36:06.290Z,6.25
2019-03-11T09:37:09.982Z,9.45
2019-03-11T09:38:13.713Z,5.22
2019-03-11T09:39:17.422Z,4.78
2019-03-11T09:40:24.293Z,4.35
2019-03-11T09:41:28.070Z,5.47
2019-03-11T09:42:31.706Z,2.92
2019-03-11T09:43:35.455Z,5.12
2019-03-11T09:44:39.152Z,4.40
2019-03-11T09:45:42.786Z,6.37
2019-03-11T09:46:46.422Z,4.05
2019-03-11T09:47:50.063Z,4.50
2019-03-11T09:48:53.785Z,4.20
2019-03-11T09:49:57.505Z,5.37
2019-03-11T09:51:01.465Z,5.17
2019-03-11T09:52:05.135Z,3.02
2019-03-11T09:53:08.903Z,3.65
2019-03-11T09:54:14.277Z,3.67
2019-03-11T09:55:26.051Z,4.58
2019-03-11T09:56:30.134Z,11.88
2019-03-11T09:57:34.018Z,4.53
2019-03-11T09:58:54.211Z,17.02
2019-03-11T09:59:57.891Z,7.78
2019-03-11T10:01:01.580Z,8.18
2019-03-11T10:02:05.481Z,4.37
2019-03-11T10:03:09.138Z,6.05
2019-03-11T10:04:12.864Z,4.42
2019-03-11T10:05:16.501Z,4.67
2019-03-11T10:06:20.181Z,8.70
2019-03-11T10:07:23.898Z,7.25
2019-03-11T10:08:27.532Z,6.90
2019-03-11T10:09:31.173Z,4.33
2019-03-11T10:10:34.886Z,2.98
2019-03-11T10:11:38.575Z,9.58
2019-03-11T10:12:42.211Z,4.70
2019-03-11T10:13:46.146Z,5.87
2019-03-11T10:14:51.450Z,2.95
2019-03-11T10:15:55.222Z,3.62
2019-03-11T10:16:58.884Z,5.28
2019-03-11T10:18:02.521Z,4.28
2019-03-11T10:19:06.176Z,4.10
2019-03-11T10:20:15.321Z,3.67
2019-03-11T10:21:19.277Z,4.65
2019-03-11T10:22:22.940Z,3.77
2019-03-11T10:23:32.060Z,3.92
2019-03-11T10:24:32.269Z,6.53
2019-03-11T10:25:35.905Z,8.20
2019-03-11T10:26:39.540Z,3.92
2019-03-11T10:27:43.202Z,3.33
2019-03-11T10:28:46.839Z,4.75
2019-03-11T10:29:50.409Z,4.25
2019-03-11T10:30:54.105Z,3.37
2019-03-11T10:31:57.806Z,3.80
2019-03-11T10:33:01.483Z,3.83
2019-03-11T10:34:05.202Z,3.65
2019-03-11T10:35:30.146Z,2.92
2019-03-11T10:36:16.666Z,2.27
2019-03-11T10:37:20.296Z,2.37
2019-03-11T10:38:24.379Z,2.65
2019-03-11T10:39:28.017Z,2.98
2019-03-11T10:40:32.528Z,3.90
2019-03-11T10:41:36.219Z,3.80
2019-03-11T10:42:39.915Z,1.47
2019-03-11T10:43:43.576Z,2.65
2019-03-11T10:44:47.214Z,4.25
2019-03-11T10:45:51.203Z,3.55
2019-03-11T10:46:54.845Z,3.25
2019-03-11T10:47:58.580Z,4.45
2019-03-11T10:49:02.323Z,4.60
2019-03-11T10:50:08.760Z,3.05
2019-03-11T10:51:12.391Z,4.08
2019-03-11T10:52:16.025Z,4.67
2019-03-11T10:53:19.709Z,5.62
2019-03-11T10:54:23.674Z,3.47
2019-03-11T10:55:27.901Z,4.37
2019-03-11T10:56:31.537Z,6.20
2019-03-11T10:57:35.183Z,13.98
2019-03-11T10:58:38.847Z,6.00
2019-03-11T10:59:42.558Z,7.42
2019-03-11T11:00:46.311Z,3.37
2019-03-11T11:01:50.346Z,5.85
2019-03-11T11:02:54.576Z,6.62
2019-03-11T11:03:58.308Z,2.98
2019-03-11T11:05:01.974Z,1.98
2019-03-11T11:06:05.608Z,2.80
2019-03-11T11:07:09.227Z,3.72
2019-03-11T11:08:12.812Z,3.70
2019-03-11T11:09:16.374Z,4.37
2019-03-11T11:10:20.343Z,5.70
2019-03-11T11:11:23.977Z,5.70
2019-03-11T11:12:27.600Z,6.37
2019-03-11T11:13:31.230Z,4.17
2019-03-11T11:14:34.872Z,2.25
2019-03-11T11:15:38.539Z,2.47
2019-03-11T11:16:42.173Z,2.17
2019-03-11T11:17:45.805Z,3.55
2019-03-11T11:18:49.373Z,3.00
2019-03-11T11:20:02.947Z,3.17
2019-03-11T11:20:59.346Z,3.60
2019-03-11T11:22:02.980Z,2.87
2019-03-11T11:23:06.622Z,3.67
2019-03-11T11:24:10.256Z,1.95
2019-03-11T11:25:28.473Z,3.42
2019-03-11T11:26:32.163Z,4.78
2019-03-11T11:27:36.666Z,2.98
2019-03-11T11:28:40.369Z,4.00
2019-03-11T11:29:43.998Z,3.20
2019-03-11T11:30:47.635Z,5.67
2019-03-11T11:31:51.374Z,3.35
2019-03-11T11:32:55.113Z,4.55
2019-03-11T11:33:58.756Z,4.58
2019-03-11T11:35:02.758Z,3.47
2019-03-11T11:36:06.515Z,3.05
2019-03-11T11:37:10.186Z,3.60
2019-03-11T11:38:13.819Z,3.58
2019-03-11T11:39:17.455Z,2.75
2019-03-11T11:40:26.078Z,3.35
2019-03-11T11:41:30.007Z,3.00
2019-03-11T11:42:33.675Z,4.97
2019-03-11T11:43:37.312Z,2.37
2019-03-11T11:44:40.880Z,3.85
2019-03-11T11:45:44.518Z,4.83
2019-03-11T11:46:48.144Z,5.47
2019-03-11T11:47:51.819Z,4.92
2019-03-11T11:48:55.441Z,4.53
2019-03-11T11:49:59.080Z,2.50
2019-03-11T11:51:02.787Z,1.98
2019-03-11T11:52:06.425Z,4.47
2019-03-11T11:53:10.119Z,2.45
2019-03-11T11:54:14.182Z,2.60
2019-03-11T11:55:22.680Z,3.72
2019-03-11T11:56:26.394Z,2.80
2019-03-11T11:57:30.342Z,2.47
2019-03-11T11:58:34.017Z,3.95
2019-03-11T11:59:37.573Z,3.00
2019-03-11T12:00:42.845Z,3.47
2019-03-11T12:01:46.490Z,1.95
2019-03-11T12:02:50.114Z,3.08
2019-03-11T12:03:53.772Z,2.58
2019-03-11T12:04:57.402Z,2.55
2019-03-11T12:06:01.031Z,2.85
2019-03-11T12:07:04.663Z,4.78
2019-03-11T12:08:08.299Z,3.35
2019-03-11T12:09:11.968Z,4.10
2019-03-11T12:10:20.621Z,2.30
2019-03-11T12:11:24.249Z,1.80
2019-03-11T12:12:28.296Z,5.03
2019-03-11T12:13:31.933Z,3.98
2019-03-11T12:14:35.596Z,3.65
2019-03-11T12:15:39.232Z,4.22
2019-03-11T12:16:42.869Z,3.10
2019-03-11T12:17:46.909Z,2.75
2019-03-11T12:18:50.573Z,3.17
2019-03-11T12:19:54.188Z,3.40
2019-03-11T12:20:57.826Z,4.62
2019-03-11T12:22:01.501Z,3.35
2019-03-11T12:23:05.269Z,3.83
2019-03-11T12:24:08.899Z,4.10
2019-03-11T12:25:14.569Z,3.95
2019-03-11T12:26:18.294Z,5.10
2019-03-11T12:27:21.920Z,2.45
2019-03-11T12:28:25.557Z,10.05
2019-03-11T12:29:30.711Z,3.92
2019-03-11T12:30:35.464Z,3.70
2019-03-11T12:31:39.195Z,4.85
2019-03-11T12:32:42.949Z,3.47
2019-03-11T12:33:46.578Z,14.55
2019-03-11T12:34:50.212Z,8.35
2019-03-11T12:35:53.880Z,5.70
2019-03-11T12:36:57.542Z,14.60
2019-03-11T12:38:01.154Z,9.55
2019-03-11T12:39:06.307Z,6.78
2019-03-11T12:40:17.992Z,4.92
2019-03-11T12:41:21.725Z,5.80
2019-03-11T12:42:25.479Z,2.17
2019-03-11T12:43:29.149Z,4.58
2019-03-11T12:44:32.791Z,2.60
2019-03-11T12:45:36.416Z,3.20
2019-03-11T12:46:39.978Z,2.05
2019-03-11T12:47:43.626Z,3.17
2019-03-11T12:48:47.265Z,3.52
2019-03-11T12:49:50.887Z,4.42
2019-03-11T12:50:54.519Z,3.50
2019-03-11T12:51:58.196Z,1.77
2019-03-11T12:53:01.842Z,3.05
2019-03-11T12:54:05.474Z,2.90
2019-03-11T12:55:09.215Z,4.78
2019-03-11T12:56:12.846Z,2.98
2019-03-11T12:57:16.886Z,2.90
2019-03-11T12:58:20.729Z,1.87
2019-03-11T12:59:24.379Z,2.50
2019-03-11T13:00:28.017Z,2.42
2019-03-11T13:01:31.652Z,6.37
2019-03-11T13:02:35.234Z,3.22
2019-03-11T13:03:38.867Z,3.35
2019-03-11T13:04:42.505Z,6.03
2019-03-11T13:05:46.142Z,2.17
2019-03-11T13:06:49.771Z,2.58
2019-03-11T13:07:53.431Z,2.58
2019-03-11T13:08:57.067Z,6.65
2019-03-11T13:10:00.703Z,4.53
2019-03-11T13:11:04.402Z,1.95
2019-03-11T13:12:08.463Z,2.75
2019-03-11T13:13:12.235Z,2.67
2019-03-11T13:14:16.005Z,3.20
2019-03-11T13:15:19.840Z,1.98
2019-03-11T13:16:23.481Z,3.35
2019-03-11T13:17:27.121Z,2.90
2019-03-11T13:18:36.081Z,3.55
2019-03-11T13:19:39.715Z,3.67
2019-03-11T13:20:43.412Z,2.17
2019-03-11T13:21:47.434Z,2.67
2019-03-11T13:22:52.240Z,3.87
2019-03-11T13:23:55.911Z,4.72
2019-03-11T13:24:59.544Z,2.67
2019-03-11T13:26:03.176Z,4.50
2019-03-11T13:27:06.809Z,2.40
2019-03-11T13:28:10.525Z,2.95
2019-03-11T13:29:14.198Z,3.65
2019-03-11T13:30:18.132Z,4.25
2019-03-11T13:31:21.764Z,3.58
2019-03-11T13:32:27.122Z,4.17
2019-03-11T13:33:30.808Z,2.83
2019-03-11T13:34:34.556Z,4.20
2019-03-11T13:35:38.194Z,3.95
2019-03-11T13:36:41.837Z,4.28
2019-03-11T13:37:45.468Z,5.03
2019-03-11T13:38:49.175Z,7.78
2019-03-11T13:39:53.149Z,6.08
2019-03-11T13:40:56.783Z,4.70
2019-03-11T13:42:00.425Z,6.28
2019-03-11T13:43:04.044Z,7.30
2019-03-11T13:44:08.102Z,2.87
2019-03-11T13:45:18.177Z,10.28
2019-03-11T13:46:21.807Z,4.85
2019-03-11T13:47:25.453Z,4.95
2019-03-11T13:48:29.092Z,9.23
2019-03-11T13:49:32.719Z,5.60
2019-03-11T13:50:36.390Z,11.22
2019-03-11T13:51:40.023Z,2.70
2019-03-11T13:52:43.670Z,6.92
2019-03-11T13:53:47.299Z,7.62
2019-03-11T13:54:51.348Z,4.17